sensor_id;sensor_type;location;lat;lon;timestamp;pressure;altitude;pressure_sealevel;temperature;humidity
70571;BME280;58135;50.948;-1.458;2022-08-30T00:01:41;101876.45;;;16.98;14.80
70571;BME280;58135;50.948;-1.458;2022-08-30T00:04:07;101877.62;;;18.15;14.63
70571;BME280;58135;50.948;-1.458;2022-08-30T00:06:32;101877.51;;;16.14;14.66
70571;BME280;58135;50.948;-1.458;2022-08-30T00:08:58;101873.06;;;15.70;14.74
70571;BME280;58135;50.948;-1.458;2022-08-30T00:11:25;101874.68;;;17.21;14.91
70571;BME280;58135;50.948;-1.458;2022-08-30T00:13:51;101878.91;;;17.98;14.94
70571;BME280;58135;50.948;-1.458;2022-08-30T00:16:15;101882.16;;;15.08;14.96
70571;BME280;58135;50.948;-1.458;2022-08-30T00:18:41;101886.31;;;16.36;14.91
70571;BME280;58135;50.948;-1.458;2022-08-30T00:21:06;101885.25;;;15.86;15.02
70571;BME280;58135;50.948;-1.458;2022-08-30T00:23:31;101881.09;;;16.87;14.92
70571;BME280;58135;50.948;-1.458;2022-08-30T00:25:56;101883.50;;;17.04;14.83
70571;BME280;58135;50.948;-1.458;2022-08-30T00:28:22;101881.43;;;15.18;14.97
70571;BME280;58135;50.948;-1.458;2022-08-30T00:30:47;101883.94;;;16.26;14.90
70571;BME280;58135;50.948;-1.458;2022-08-30T00:33:13;101881.90;;;16.06;14.84
70571;BME280;58135;50.948;-1.458;2022-08-30T00:35:39;101883.40;;;17.58;15.01
70571;BME280;58135;50.948;-1.458;2022-08-30T00:38:04;101880.31;;;15.69;14.93
70571;BME280;58135;50.948;-1.458;2022-08-30T00:40:29;101878.96;;;15.06;15.05
70571;BME280;58135;50.948;-1.458;2022-08-30T00:42:56;101879.39;;;16.46;15.17
70571;BME280;58135;50.948;-1.458;2022-08-30T00:45:23;101878.63;;;14.12;15.24
70571;BME280;58135;50.948;-1.458;2022-08-30T00:47:46;101879.98;;;14.04;15.59
70571;BME280;58135;50.948;-1.458;2022-08-30T00:50:13;101879.46;;;15.04;15.54
70571;BME280;58135;50.948;-1.458;2022-08-30T00:52:38;101878.09;;;14.96;15.58
70571;BME280;58135;50.948;-1.458;2022-08-30T00:55:04;101880.97;;;14.61;15.63
70571;BME280;58135;50.948;-1.458;2022-08-30T00:57:29;101889.41;;;14.59;15.70
70571;BME280;58135;50.948;-1.458;2022-08-30T00:59:54;101892.93;;;13.94;15.62
70571;BME280;58135;50.948;-1.458;2022-08-30T01:02:21;101896.02;;;15.65;15.43
70571;BME280;58135;50.948;-1.458;2022-08-30T01:04:45;101894.84;;;17.47;15.57
70571;BME280;58135;50.948;-1.458;2022-08-30T01:07:11;101893.62;;;15.72;15.60
70571;BME280;58135;50.948;-1.458;2022-08-30T01:09:36;101896.48;;;16.41;15.70
70571;BME280;58135;50.948;-1.458;2022-08-30T01:12:03;101897.29;;;14.90;15.85
70571;BME280;58135;50.948;-1.458;2022-08-30T01:14:27;101899.59;;;15.75;15.77
70571;BME280;58135;50.948;-1.458;2022-08-30T01:16:54;101896.31;;;12.81;15.95
70571;BME280;58135;50.948;-1.458;2022-08-30T01:19:26;101899.24;;;17.13;16.03
70571;BME280;58135;50.948;-1.458;2022-08-30T01:21:47;101899.12;;;15.55;16.05
70571;BME280;58135;50.948;-1.458;2022-08-30T01:24:09;101900.89;;;14.15;15.86
70571;BME280;58135;50.948;-1.458;2022-08-30T01:26:35;101899.68;;;15.57;16.02
70571;BME280;58135;50.948;-1.458;2022-08-30T01:29:04;101898.46;;;15.37;15.84
70571;BME280;58135;50.948;-1.458;2022-08-30T01:31:26;101892.45;;;15.72;15.89
70571;BME280;58135;50.948;-1.458;2022-08-30T01:33:51;101892.23;;;16.05;16.15
70571;BME280;58135;50.948;-1.458;2022-08-30T01:36:17;101892.33;;;14.81;16.00
70571;BME280;58135;50.948;-1.458;2022-08-30T01:38:46;101895.84;;;14.62;16.11
70571;BME280;58135;50.948;-1.458;2022-08-30T01:41:09;101895.30;;;13.26;16.30
70571;BME280;58135;50.948;-1.458;2022-08-30T01:43:33;101895.22;;;14.28;16.18
70571;BME280;58135;50.948;-1.458;2022-08-30T01:45:58;101894.93;;;13.40;16.15
70571;BME280;58135;50.948;-1.458;2022-08-30T01:48:24;101894.18;;;15.28;16.55
70571;BME280;58135;50.948;-1.458;2022-08-30T01:50:50;101893.22;;;14.17;16.23
70571;BME280;58135;50.948;-1.458;2022-08-30T01:53:15;101896.50;;;13.45;16.26
70571;BME280;58135;50.948;-1.458;2022-08-30T01:55:41;101901.40;;;13.88;16.31
70571;BME280;58135;50.948;-1.458;2022-08-30T01:58:06;101901.36;;;14.02;16.29
70571;BME280;58135;50.948;-1.458;2022-08-30T02:00:32;101905.30;;;13.54;16.38
70571;BME280;58135;50.948;-1.458;2022-08-30T02:02:57;101901.98;;;14.56;15.99
70571;BME280;58135;50.948;-1.458;2022-08-30T02:05:24;101905.00;;;15.94;16.45
70571;BME280;58135;50.948;-1.458;2022-08-30T02:07:48;101901.25;;;12.76;16.57
70571;BME280;58135;50.948;-1.458;2022-08-30T02:10:14;101901.12;;;15.15;16.72
70571;BME280;58135;50.948;-1.458;2022-08-30T02:12:40;101900.06;;;15.89;16.33
70571;BME280;58135;50.948;-1.458;2022-08-30T02:15:06;101896.43;;;15.73;16.02
70571;BME280;58135;50.948;-1.458;2022-08-30T02:17:31;101896.78;;;14.62;16.45
70571;BME280;58135;50.948;-1.458;2022-08-30T02:19:57;101897.13;;;14.21;16.48
70571;BME280;58135;50.948;-1.458;2022-08-30T02:22:22;101894.12;;;13.57;16.54
70571;BME280;58135;50.948;-1.458;2022-08-30T02:24:47;101900.17;;;13.64;16.35
70571;BME280;58135;50.948;-1.458;2022-08-30T02:27:13;101899.77;;;14.67;16.64
70571;BME280;58135;50.948;-1.458;2022-08-30T02:29:39;101901.70;;;14.80;16.68
70571;BME280;58135;50.948;-1.458;2022-08-30T02:32:04;101897.61;;;15.26;16.55
70571;BME280;58135;50.948;-1.458;2022-08-30T02:34:30;101898.36;;;13.71;16.82
70571;BME280;58135;50.948;-1.458;2022-08-30T02:36:55;101895.64;;;13.95;16.64
70571;BME280;58135;50.948;-1.458;2022-08-30T02:39:21;101893.96;;;15.03;16.60
70571;BME280;58135;50.948;-1.458;2022-08-30T02:41:46;101895.09;;;12.91;16.74
70571;BME280;58135;50.948;-1.458;2022-08-30T02:44:12;101892.02;;;14.84;16.89
70571;BME280;58135;50.948;-1.458;2022-08-30T02:46:38;101895.23;;;13.68;16.94
70571;BME280;58135;50.948;-1.458;2022-08-30T02:49:04;101893.68;;;14.56;17.05
70571;BME280;58135;50.948;-1.458;2022-08-30T02:51:29;101893.36;;;14.44;17.19
70571;BME280;58135;50.948;-1.458;2022-08-30T02:53:54;101890.18;;;14.61;16.99
70571;BME280;58135;50.948;-1.458;2022-08-30T02:56:19;101889.91;;;14.81;16.91
70571;BME280;58135;50.948;-1.458;2022-08-30T02:58:45;101894.70;;;14.07;17.27
70571;BME280;58135;50.948;-1.458;2022-08-30T03:01:13;101895.61;;;14.54;17.39
70571;BME280;58135;50.948;-1.458;2022-08-30T03:03:36;101888.17;;;14.78;17.26
70571;BME280;58135;50.948;-1.458;2022-08-30T03:06:02;101887.42;;;14.27;17.31
70571;BME280;58135;50.948;-1.458;2022-08-30T03:08:27;101888.48;;;14.26;17.29
70571;BME280;58135;50.948;-1.458;2022-08-30T03:10:53;101887.14;;;13.95;17.28
70571;BME280;58135;50.948;-1.458;2022-08-30T03:13:18;101882.51;;;12.62;17.39
70571;BME280;58135;50.948;-1.458;2022-08-30T03:15:44;101881.58;;;13.88;17.61
70571;BME280;58135;50.948;-1.458;2022-08-30T03:18:09;101881.54;;;13.62;17.48
70571;BME280;58135;50.948;-1.458;2022-08-30T03:20:35;101878.99;;;13.76;17.44
70571;BME280;58135;50.948;-1.458;2022-08-30T03:23:01;101879.76;;;14.11;17.30
70571;BME280;58135;50.948;-1.458;2022-08-30T03:25:26;101872.70;;;16.96;17.21
70571;BME280;58135;50.948;-1.458;2022-08-30T03:27:52;101873.82;;;15.34;17.19
70571;BME280;58135;50.948;-1.458;2022-08-30T03:30:19;101871.85;;;14.23;17.13
70571;BME280;58135;50.948;-1.458;2022-08-30T03:32:43;101874.09;;;12.18;17.30
70571;BME280;58135;50.948;-1.458;2022-08-30T03:35:09;101864.53;;;15.07;17.27
70571;BME280;58135;50.948;-1.458;2022-08-30T03:37:34;101864.68;;;13.51;17.42
70571;BME280;58135;50.948;-1.458;2022-08-30T03:40:00;101870.33;;;13.69;17.31
70571;BME280;58135;50.948;-1.458;2022-08-30T03:42:25;101867.39;;;14.28;17.51
70571;BME280;58135;50.948;-1.458;2022-08-30T03:44:50;101865.05;;;15.15;17.32
70571;BME280;58135;50.948;-1.458;2022-08-30T03:47:16;101863.63;;;12.77;17.63
70571;BME280;58135;50.948;-1.458;2022-08-30T03:49:42;101860.74;;;14.48;17.33
70571;BME280;58135;50.948;-1.458;2022-08-30T03:52:07;101857.07;;;14.59;17.38
70571;BME280;58135;50.948;-1.458;2022-08-30T03:54:33;101853.06;;;15.58;17.23
70571;BME280;58135;50.948;-1.458;2022-08-30T03:56:58;101852.43;;;15.14;17.46
70571;BME280;58135;50.948;-1.458;2022-08-30T03:59:24;101851.06;;;14.20;17.45
70571;BME280;58135;50.948;-1.458;2022-08-30T04:01:50;101846.07;;;14.31;17.47
70571;BME280;58135;50.948;-1.458;2022-08-30T04:04:15;101841.64;;;13.38;17.49
70571;BME280;58135;50.948;-1.458;2022-08-30T04:06:40;101841.51;;;12.07;17.35
70571;BME280;58135;50.948;-1.458;2022-08-30T04:09:06;101844.06;;;15.52;17.73
70571;BME280;58135;50.948;-1.458;2022-08-30T04:11:31;101846.84;;;15.09;17.45
70571;BME280;58135;50.948;-1.458;2022-08-30T04:13:57;101849.16;;;13.30;17.34
70571;BME280;58135;50.948;-1.458;2022-08-30T04:16:23;101841.91;;;13.51;17.55
70571;BME280;58135;50.948;-1.458;2022-08-30T04:18:48;101844.38;;;13.60;17.48
70571;BME280;58135;50.948;-1.458;2022-08-30T04:21:14;101843.45;;;12.97;17.51
70571;BME280;58135;50.948;-1.458;2022-08-30T04:23:39;101841.21;;;15.20;17.55
70571;BME280;58135;50.948;-1.458;2022-08-30T04:26:05;101841.12;;;13.53;17.33
70571;BME280;58135;50.948;-1.458;2022-08-30T04:28:31;101841.11;;;13.46;17.49
70571;BME280;58135;50.948;-1.458;2022-08-30T04:30:56;101848.02;;;14.96;17.55
70571;BME280;58135;50.948;-1.458;2022-08-30T04:33:22;101847.71;;;13.74;17.68
70571;BME280;58135;50.948;-1.458;2022-08-30T04:35:48;101850.27;;;14.14;17.59
70571;BME280;58135;50.948;-1.458;2022-08-30T04:38:14;101850.74;;;13.41;17.52
70571;BME280;58135;50.948;-1.458;2022-08-30T04:40:40;101859.27;;;13.29;17.60
70571;BME280;58135;50.948;-1.458;2022-08-30T04:43:04;101857.43;;;12.34;17.58
70571;BME280;58135;50.948;-1.458;2022-08-30T04:45:29;101854.43;;;14.15;17.61
70571;BME280;58135;50.948;-1.458;2022-08-30T04:47:55;101851.26;;;14.71;17.63
70571;BME280;58135;50.948;-1.458;2022-08-30T04:50:21;101854.31;;;14.14;17.94
70571;BME280;58135;50.948;-1.458;2022-08-30T04:52:47;101853.23;;;13.74;18.07
70571;BME280;58135;50.948;-1.458;2022-08-30T04:55:13;101854.47;;;13.93;18.07
70571;BME280;58135;50.948;-1.458;2022-08-30T04:57:38;101856.12;;;12.32;18.08
70571;BME280;58135;50.948;-1.458;2022-08-30T05:00:05;101857.15;;;13.34;17.72
70571;BME280;58135;50.948;-1.458;2022-08-30T05:02:29;101862.00;;;12.47;17.96
70571;BME280;58135;50.948;-1.458;2022-08-30T05:04:54;101867.15;;;14.42;17.92
70571;BME280;58135;50.948;-1.458;2022-08-30T05:07:20;101868.24;;;13.72;17.91
70571;BME280;58135;50.948;-1.458;2022-08-30T05:09:45;101871.21;;;13.41;17.89
70571;BME280;58135;50.948;-1.458;2022-08-30T05:12:11;101874.49;;;14.50;17.92
70571;BME280;58135;50.948;-1.458;2022-08-30T05:14:37;101874.93;;;13.54;17.94
70571;BME280;58135;50.948;-1.458;2022-08-30T05:17:02;101872.10;;;13.04;18.17
70571;BME280;58135;50.948;-1.458;2022-08-30T05:19:30;101878.80;;;11.98;18.15
70571;BME280;58135;50.948;-1.458;2022-08-30T05:21:53;101876.38;;;14.79;17.84
70571;BME280;58135;50.948;-1.458;2022-08-30T05:24:18;101874.58;;;13.84;18.28
70571;BME280;58135;50.948;-1.458;2022-08-30T05:26:44;101879.23;;;12.76;18.34
70571;BME280;58135;50.948;-1.458;2022-08-30T05:29:09;101877.88;;;11.93;18.25
70571;BME280;58135;50.948;-1.458;2022-08-30T05:31:36;101874.53;;;12.75;18.34
70571;BME280;58135;50.948;-1.458;2022-08-30T05:34:01;101877.61;;;13.00;18.30
70571;BME280;58135;50.948;-1.458;2022-08-30T05:36:28;101874.98;;;14.15;18.25
70571;BME280;58135;50.948;-1.458;2022-08-30T05:38:52;101879.44;;;14.82;17.74
70571;BME280;58135;50.948;-1.458;2022-08-30T05:41:17;101884.05;;;12.81;18.35
70571;BME280;58135;50.948;-1.458;2022-08-30T05:43:42;101887.48;;;13.70;18.46
70571;BME280;58135;50.948;-1.458;2022-08-30T05:46:10;101889.18;;;12.60;18.53
70571;BME280;58135;50.948;-1.458;2022-08-30T05:48:34;101890.92;;;13.80;18.27
70571;BME280;58135;50.948;-1.458;2022-08-30T05:51:02;101892.85;;;15.20;18.15
70571;BME280;58135;50.948;-1.458;2022-08-30T05:53:25;101895.30;;;13.29;18.23
70571;BME280;58135;50.948;-1.458;2022-08-30T05:55:50;101898.71;;;12.11;18.14
70571;BME280;58135;50.948;-1.458;2022-08-30T05:58:15;101897.59;;;13.46;18.21
70571;BME280;58135;50.948;-1.458;2022-08-30T06:00:41;101902.60;;;13.19;18.22
70571;BME280;58135;50.948;-1.458;2022-08-30T06:03:06;101899.54;;;15.41;18.04
70571;BME280;58135;50.948;-1.458;2022-08-30T06:05:32;101903.58;;;14.10;18.31
70571;BME280;58135;50.948;-1.458;2022-08-30T06:07:57;101902.86;;;12.64;18.24
70571;BME280;58135;50.948;-1.458;2022-08-30T06:10:23;101902.24;;;13.11;18.18
70571;BME280;58135;50.948;-1.458;2022-08-30T06:12:48;101900.04;;;14.89;18.18
70571;BME280;58135;50.948;-1.458;2022-08-30T06:15:14;101900.21;;;14.12;18.16
70571;BME280;58135;50.948;-1.458;2022-08-30T06:17:39;101899.06;;;14.15;18.00
70571;BME280;58135;50.948;-1.458;2022-08-30T06:20:06;101898.81;;;16.34;18.15
70571;BME280;58135;50.948;-1.458;2022-08-30T06:22:30;101902.60;;;14.90;17.98
70571;BME280;58135;50.948;-1.458;2022-08-30T06:24:56;101901.87;;;13.28;17.98
70571;BME280;58135;50.948;-1.458;2022-08-30T06:27:22;101904.28;;;13.44;18.08
70571;BME280;58135;50.948;-1.458;2022-08-30T06:29:49;101900.09;;;13.47;18.04
70571;BME280;58135;50.948;-1.458;2022-08-30T06:32:13;101895.95;;;12.92;17.93
70571;BME280;58135;50.948;-1.458;2022-08-30T06:34:38;101896.32;;;15.13;17.65
70571;BME280;58135;50.948;-1.458;2022-08-30T06:37:03;101901.30;;;14.26;17.99
70571;BME280;58135;50.948;-1.458;2022-08-30T06:39:29;101899.21;;;15.13;17.92
70571;BME280;58135;50.948;-1.458;2022-08-30T06:41:55;101894.45;;;13.42;18.05
70571;BME280;58135;50.948;-1.458;2022-08-30T06:44:20;101896.75;;;14.95;17.89
70571;BME280;58135;50.948;-1.458;2022-08-30T06:46:46;101901.24;;;15.12;17.73
70571;BME280;58135;50.948;-1.458;2022-08-30T06:49:11;101898.22;;;13.65;18.08
70571;BME280;58135;50.948;-1.458;2022-08-30T06:51:38;101902.81;;;13.40;17.92
70571;BME280;58135;50.948;-1.458;2022-08-30T06:54:04;101900.38;;;15.05;18.30
70571;BME280;58135;50.948;-1.458;2022-08-30T06:56:28;101905.29;;;14.97;18.21
70571;BME280;58135;50.948;-1.458;2022-08-30T06:58:54;101904.51;;;14.12;17.95
70571;BME280;58135;50.948;-1.458;2022-08-30T07:01:21;101901.93;;;14.05;18.43
70571;BME280;58135;50.948;-1.458;2022-08-30T07:03:45;101905.32;;;14.76;18.09
70571;BME280;58135;50.948;-1.458;2022-08-30T07:06:10;101903.40;;;15.21;18.25
70571;BME280;58135;50.948;-1.458;2022-08-30T07:08:37;101898.89;;;15.99;18.29
70571;BME280;58135;50.948;-1.458;2022-08-30T07:11:01;101898.03;;;15.64;18.35
70571;BME280;58135;50.948;-1.458;2022-08-30T07:13:27;101897.00;;;14.59;18.02
70571;BME280;58135;50.948;-1.458;2022-08-30T07:15:52;101903.10;;;15.66;18.01
70571;BME280;58135;50.948;-1.458;2022-08-30T07:18:18;101905.24;;;14.85;18.15
70571;BME280;58135;50.948;-1.458;2022-08-30T07:20:43;101901.85;;;15.11;18.05
70571;BME280;58135;50.948;-1.458;2022-08-30T07:23:09;101904.81;;;14.56;18.02
70571;BME280;58135;50.948;-1.458;2022-08-30T07:25:34;101905.10;;;17.30;17.96
70571;BME280;58135;50.948;-1.458;2022-08-30T07:27:59;101905.74;;;17.80;17.61
70571;BME280;58135;50.948;-1.458;2022-08-30T07:30:25;101908.34;;;14.68;18.05
70571;BME280;58135;50.948;-1.458;2022-08-30T07:32:50;101906.56;;;15.40;17.64
70571;BME280;58135;50.948;-1.458;2022-08-30T07:35:16;101905.53;;;16.09;17.62
70571;BME280;58135;50.948;-1.458;2022-08-30T07:37:41;101909.28;;;16.26;17.42
70571;BME280;58135;50.948;-1.458;2022-08-30T07:40:08;101909.84;;;14.33;17.77
70571;BME280;58135;50.948;-1.458;2022-08-30T07:42:32;101909.07;;;13.91;17.60
70571;BME280;58135;50.948;-1.458;2022-08-30T07:44:58;101914.93;;;15.39;17.40
70571;BME280;58135;50.948;-1.458;2022-08-30T07:47:24;101911.58;;;17.08;17.66
70571;BME280;58135;50.948;-1.458;2022-08-30T07:49:49;101913.88;;;17.24;17.73
70571;BME280;58135;50.948;-1.458;2022-08-30T07:52:15;101915.93;;;14.38;17.72
70571;BME280;58135;50.948;-1.458;2022-08-30T07:54:39;101915.03;;;17.08;17.85
70571;BME280;58135;50.948;-1.458;2022-08-30T07:57:05;101910.92;;;16.50;17.80
70571;BME280;58135;50.948;-1.458;2022-08-30T07:59:30;101907.41;;;13.85;17.71
70571;BME280;58135;50.948;-1.458;2022-08-30T08:01:55;101907.74;;;15.14;17.72
70571;BME280;58135;50.948;-1.458;2022-08-30T08:04:21;101912.72;;;14.66;18.16
70571;BME280;58135;50.948;-1.458;2022-08-30T08:06:46;101915.59;;;15.50;18.10
70571;BME280;58135;50.948;-1.458;2022-08-30T08:09:12;101914.60;;;14.69;18.29
70571;BME280;58135;50.948;-1.458;2022-08-30T08:11:37;101914.72;;;14.55;18.58
70571;BME280;58135;50.948;-1.458;2022-08-30T08:14:03;101916.80;;;15.49;18.49
70571;BME280;58135;50.948;-1.458;2022-08-30T08:16:30;101914.59;;;14.59;18.58
70571;BME280;58135;50.948;-1.458;2022-08-30T08:18:54;101915.63;;;16.19;18.62
70571;BME280;58135;50.948;-1.458;2022-08-30T08:21:19;101914.19;;;16.03;18.20
70571;BME280;58135;50.948;-1.458;2022-08-30T08:23:44;101913.20;;;14.59;17.48
70571;BME280;58135;50.948;-1.458;2022-08-30T08:26:10;101920.32;;;16.76;18.03
70571;BME280;58135;50.948;-1.458;2022-08-30T08:28:35;101917.64;;;13.54;17.85
70571;BME280;58135;50.948;-1.458;2022-08-30T08:31:01;101915.62;;;13.89;17.94
70571;BME280;58135;50.948;-1.458;2022-08-30T08:33:27;101913.95;;;16.74;17.87
70571;BME280;58135;50.948;-1.458;2022-08-30T08:35:52;101916.74;;;15.16;17.88
70571;BME280;58135;50.948;-1.458;2022-08-30T08:38:17;101915.11;;;18.35;16.97
70571;BME280;58135;50.948;-1.458;2022-08-30T08:40:50;101916.62;;;15.91;17.04
70571;BME280;58135;50.948;-1.458;2022-08-30T08:43:11;101916.57;;;16.71;17.10
70571;BME280;58135;50.948;-1.458;2022-08-30T08:45:42;101921.46;;;16.42;17.02
70571;BME280;58135;50.948;-1.458;2022-08-30T08:48:09;101914.56;;;17.17;17.11
70571;BME280;58135;50.948;-1.458;2022-08-30T08:50:25;101912.46;;;16.09;16.78
70571;BME280;58135;50.948;-1.458;2022-08-30T08:52:54;101924.33;;;16.37;17.12
70571;BME280;58135;50.948;-1.458;2022-08-30T08:55:19;101935.40;;;18.54;16.72
70571;BME280;58135;50.948;-1.458;2022-08-30T08:57:41;101930.65;;;18.77;16.66
70571;BME280;58135;50.948;-1.458;2022-08-30T09:00:10;101924.54;;;17.26;16.81
70571;BME280;58135;50.948;-1.458;2022-08-30T09:02:39;101932.38;;;18.81;16.61
70571;BME280;58135;50.948;-1.458;2022-08-30T09:05:00;101927.52;;;18.10;16.48
70571;BME280;58135;50.948;-1.458;2022-08-30T09:07:25;101924.03;;;18.19;16.81
70571;BME280;58135;50.948;-1.458;2022-08-30T09:09:49;101929.52;;;17.88;16.84
70571;BME280;58135;50.948;-1.458;2022-08-30T09:12:15;101925.71;;;16.28;17.03
70571;BME280;58135;50.948;-1.458;2022-08-30T09:14:43;101922.33;;;15.29;16.67
70571;BME280;58135;50.948;-1.458;2022-08-30T09:17:08;101926.83;;;18.42;16.43
70571;BME280;58135;50.948;-1.458;2022-08-30T09:19:35;101929.74;;;17.57;16.47
70571;BME280;58135;50.948;-1.458;2022-08-30T09:21:57;101919.04;;;18.19;16.67
70571;BME280;58135;50.948;-1.458;2022-08-30T09:24:22;101921.12;;;17.26;16.67
70571;BME280;58135;50.948;-1.458;2022-08-30T09:26:47;101923.27;;;16.82;16.82
70571;BME280;58135;50.948;-1.458;2022-08-30T09:29:16;101930.40;;;17.86;16.46
70571;BME280;58135;50.948;-1.458;2022-08-30T09:31:45;101925.10;;;17.68;16.45
70571;BME280;58135;50.948;-1.458;2022-08-30T09:34:05;101925.38;;;19.41;16.45
70571;BME280;58135;50.948;-1.458;2022-08-30T09:36:32;101921.36;;;17.86;16.42
70571;BME280;58135;50.948;-1.458;2022-08-30T09:38:59;101924.56;;;18.28;16.45
70571;BME280;58135;50.948;-1.458;2022-08-30T09:41:29;101924.09;;;17.48;16.05
70571;BME280;58135;50.948;-1.458;2022-08-30T09:44:02;101928.62;;;17.95;15.80
70571;BME280;58135;50.948;-1.458;2022-08-30T09:46:11;101922.35;;;18.85;15.78
70571;BME280;58135;50.948;-1.458;2022-08-30T09:48:39;101912.79;;;19.24;15.61
70571;BME280;58135;50.948;-1.458;2022-08-30T09:51:20;101925.59;;;17.70;15.60
70571;BME280;58135;50.948;-1.458;2022-08-30T09:53:31;101929.75;;;17.55;15.52
70571;BME280;58135;50.948;-1.458;2022-08-30T09:56:02;101923.49;;;18.46;15.60
70571;BME280;58135;50.948;-1.458;2022-08-30T09:58:24;101924.26;;;18.64;15.49
70571;BME280;58135;50.948;-1.458;2022-08-30T10:00:48;101921.32;;;20.09;15.25
70571;BME280;58135;50.948;-1.458;2022-08-30T10:03:19;101924.41;;;20.73;14.96
70571;BME280;58135;50.948;-1.458;2022-08-30T10:05:43;101928.11;;;19.77;15.08
70571;BME280;58135;50.948;-1.458;2022-08-30T10:08:10;101931.63;;;16.84;15.17
70571;BME280;58135;50.948;-1.458;2022-08-30T10:10:30;101932.73;;;18.31;14.87
70571;BME280;58135;50.948;-1.458;2022-08-30T10:13:01;101929.72;;;20.47;15.28
70571;BME280;58135;50.948;-1.458;2022-08-30T10:15:20;101930.07;;;17.98;15.07
70571;BME280;58135;50.948;-1.458;2022-08-30T10:17:47;101922.12;;;18.12;15.41
70571;BME280;58135;50.948;-1.458;2022-08-30T10:20:16;101924.77;;;17.22;15.43
70571;BME280;58135;50.948;-1.458;2022-08-30T10:22:36;101927.99;;;18.91;15.43
70571;BME280;58135;50.948;-1.458;2022-08-30T10:25:02;101926.25;;;18.64;15.45
70571;BME280;58135;50.948;-1.458;2022-08-30T10:27:27;101926.26;;;18.13;15.14
70571;BME280;58135;50.948;-1.458;2022-08-30T10:29:53;101931.23;;;18.13;15.40
70571;BME280;58135;50.948;-1.458;2022-08-30T10:32:20;101925.96;;;19.93;15.31
70571;BME280;58135;50.948;-1.458;2022-08-30T10:34:45;101926.77;;;17.53;15.36
70571;BME280;58135;50.948;-1.458;2022-08-30T10:37:07;101922.39;;;19.94;15.72
70571;BME280;58135;50.948;-1.458;2022-08-30T10:39:37;101925.66;;;19.26;15.51
70571;BME280;58135;50.948;-1.458;2022-08-30T10:42:03;101926.04;;;19.36;15.55
70571;BME280;58135;50.948;-1.458;2022-08-30T10:44:27;101920.23;;;18.36;15.58
70571;BME280;58135;50.948;-1.458;2022-08-30T10:46:57;101927.34;;;19.93;15.37
70571;BME280;58135;50.948;-1.458;2022-08-30T10:49:17;101929.74;;;19.26;15.00
70571;BME280;58135;50.948;-1.458;2022-08-30T10:51:45;101926.67;;;19.82;15.10
70571;BME280;58135;50.948;-1.458;2022-08-30T10:54:10;101928.54;;;21.40;14.81
70571;BME280;58135;50.948;-1.458;2022-08-30T10:56:30;101931.88;;;19.51;14.55
70571;BME280;58135;50.948;-1.458;2022-08-30T10:58:56;101930.66;;;20.63;14.48
70571;BME280;58135;50.948;-1.458;2022-08-30T11:01:29;101937.73;;;17.96;14.43
70571;BME280;58135;50.948;-1.458;2022-08-30T11:03:57;101944.36;;;20.56;14.62
70571;BME280;58135;50.948;-1.458;2022-08-30T11:06:17;101942.48;;;20.11;14.42
70571;BME280;58135;50.948;-1.458;2022-08-30T11:08:48;101939.10;;;18.09;14.63
70571;BME280;58135;50.948;-1.458;2022-08-30T11:11:08;101938.64;;;19.76;14.56
70571;BME280;58135;50.948;-1.458;2022-08-30T11:13:29;101937.74;;;18.90;14.60
70571;BME280;58135;50.948;-1.458;2022-08-30T11:15:56;101936.11;;;19.85;14.87
70571;BME280;58135;50.948;-1.458;2022-08-30T11:18:19;101935.19;;;19.36;14.35
70571;BME280;58135;50.948;-1.458;2022-08-30T11:20:45;101932.90;;;21.22;14.26
70571;BME280;58135;50.948;-1.458;2022-08-30T11:23:22;101929.05;;;19.61;14.10
70571;BME280;58135;50.948;-1.458;2022-08-30T11:25:46;101934.17;;;19.59;13.82
70571;BME280;58135;50.948;-1.458;2022-08-30T11:28:00;101932.94;;;21.74;13.98
70571;BME280;58135;50.948;-1.458;2022-08-30T11:30:45;101929.67;;;20.55;13.96
70571;BME280;58135;50.948;-1.458;2022-08-30T11:32:58;101933.16;;;21.07;13.84
70571;BME280;58135;50.948;-1.458;2022-08-30T11:37:43;101929.90;;;20.87;13.76
70571;BME280;58135;50.948;-1.458;2022-08-30T11:42:36;101926.89;;;22.13;13.48
70571;BME280;58135;50.948;-1.458;2022-08-30T11:47:36;101921.88;;;21.88;13.86
70571;BME280;58135;50.948;-1.458;2022-08-30T11:49:57;101926.10;;;21.58;14.02
70571;BME280;58135;50.948;-1.458;2022-08-30T11:52:28;101927.21;;;22.62;14.05
70571;BME280;58135;50.948;-1.458;2022-08-30T11:54:50;101928.93;;;22.55;13.54
70571;BME280;58135;50.948;-1.458;2022-08-30T11:57:16;101928.17;;;21.82;13.40
70571;BME280;58135;50.948;-1.458;2022-08-30T11:59:42;101928.74;;;19.78;13.93
70571;BME280;58135;50.948;-1.458;2022-08-30T12:01:57;101934.84;;;20.16;13.75
70571;BME280;58135;50.948;-1.458;2022-08-30T12:04:34;101933.58;;;20.54;12.93
70571;BME280;58135;50.948;-1.458;2022-08-30T12:06:50;101934.34;;;21.30;12.93
70571;BME280;58135;50.948;-1.458;2022-08-30T12:11:52;101931.56;;;21.66;12.95
70571;BME280;58135;50.948;-1.458;2022-08-30T12:14:04;101926.54;;;22.13;13.00
70571;BME280;58135;50.948;-1.458;2022-08-30T12:16:36;101928.77;;;21.78;13.55
70571;BME280;58135;50.948;-1.458;2022-08-30T12:18:56;101928.77;;;20.69;13.01
70571;BME280;58135;50.948;-1.458;2022-08-30T12:21:26;101933.75;;;22.62;12.58
70571;BME280;58135;50.948;-1.458;2022-08-30T12:23:51;101931.27;;;22.26;12.64
70571;BME280;58135;50.948;-1.458;2022-08-30T12:26:16;101928.97;;;21.41;12.74
70571;BME280;58135;50.948;-1.458;2022-08-30T12:28:37;101929.34;;;22.83;12.86
70571;BME280;58135;50.948;-1.458;2022-08-30T12:31:07;101926.63;;;23.58;12.17
70571;BME280;58135;50.948;-1.458;2022-08-30T12:33:33;101930.05;;;20.52;12.35
70571;BME280;58135;50.948;-1.458;2022-08-30T12:35:53;101922.54;;;21.92;12.52
70571;BME280;58135;50.948;-1.458;2022-08-30T12:38:20;101924.89;;;24.07;12.53
70571;BME280;58135;50.948;-1.458;2022-08-30T12:40:49;101922.91;;;24.30;12.02